Time;durP1;ratioP1;P1;durP2;ratioP2;P2;SDS_P1;SDS_P2;PMS_P1;PMS_P2;Temp;Humidity;BMP_temperature;BMP_pressure;BME280_temperature;BME280_humidity;BME280_pressure;Samples;Min_cycle;Max_cycle;Signal;HPM_P1;HPM_P2
2022/07/18 00:03:17;;;;;;;5.70;2.60;;;;;;;;;;10559606;27;20084;-70
2022/07/18 00:08:20;;;;;;;5.40;2.88;;;;;;;;;;10553056;27;20126;-69
2022/07/18 00:13:23;;;;;;;;;;;;;;;;;;10559564;28;20467;-72
2022/07/18 00:18:27;;;;;;;4.35;2.70;;;;;;;;;;10557514;27;20375;-71
2022/07/18 00:23:30;;;;;;;4.55;2.60;;;;;;;;;;10564036;27;20460;-71
2022/07/18 00:28:33;;;;;;;6.37;2.87;;;;;;;;;;10554268;27;20042;-71
2022/07/18 00:33:39;;;;;;;6.00;2.90;;;;;;;;;;10549393;28;20474;-71
2022/07/18 00:38:42;;;;;;;5.10;2.78;;;;;;;;;;10550723;28;20424;-71
2022/07/18 00:43:45;;;;;;;3.80;2.53;;;;;;;;;;10551388;28;20131;-71
2022/07/18 00:48:49;;;;;;;5.10;2.77;;;;;;;;;;10555580;28;20120;-71
2022/07/18 00:53:51;;;;;;;4.22;2.72;;;;;;;;;;10557337;28;20039;-72
2022/07/18 00:58:54;;;;;;;7.13;3.33;;;;;;;;;;10553286;28;20046;-71
2022/07/18 01:03:58;;;;;;;3.90;2.63;;;;;;;;;;10558575;28;20127;-71
2022/07/18 01:09:02;;;;;;;3.83;2.70;;;;;;;;;;10557582;28;20040;-72
2022/07/18 01:14:09;;;;;;;4.50;2.60;;;;;;;;;;10556576;28;20040;-72
2022/07/18 01:19:13;;;;;;;4.22;2.80;;;;;;;;;;10563392;28;20499;-71
2022/07/18 01:24:18;;;;;;;4.63;2.72;;;;;;;;;;10551712;28;20036;-72
2022/07/18 01:29:35;;;;;;;5.32;3.10;;;;;;;;;;10558379;28;20522;-73
2022/07/18 01:34:57;;;;;;;6.35;2.88;;;;;;;;;;10559432;28;20039;-71
2022/07/18 01:40:21;;;;;;;4.82;2.90;;;;;;;;;;10558437;28;20055;-72
2022/07/18 01:45:24;;;;;;;5.07;2.95;;;;;;;;;;10562192;28;20039;-72
2022/07/18 01:50:27;;;;;;;5.07;2.78;;;;;;;;;;10558684;28;20487;-71
2022/07/18 01:55:31;;;;;;;4.20;2.80;;;;;;;;;;10558407;27;20040;-71
2022/07/18 02:00:35;;;;;;;4.50;2.95;;;;;;;;;;10570323;27;20340;-72
2022/07/18 02:05:38;;;;;;;4.07;2.73;;;;;;;;;;10566553;28;20072;-71
2022/07/18 02:10:41;;;;;;;;;;;;;;;;;;10561176;28;20035;-71
2022/07/18 02:15:45;;;;;;;5.78;2.97;;;;;;;;;;10562498;28;19930;-71
2022/07/18 02:20:48;;;;;;;5.55;3.10;;;;;;;;;;10568713;27;20086;-72
2022/07/18 02:25:51;;;;;;;4.95;3.30;;;;;;;;;;10563193;27;20057;-71
2022/07/18 02:30:55;;;;;;;4.97;3.00;;;;;;;;;;10566678;28;20032;-71
2022/07/18 02:35:58;;;;;;;5.13;3.10;;;;;;;;;;10564608;28;20036;-72
2022/07/18 02:41:01;;;;;;;4.93;2.97;;;;;;;;;;10560982;28;20063;-71
2022/07/18 02:46:05;;;;;;;5.97;3.25;;;;;;;;;;10560994;27;20546;-71
2022/07/18 02:51:08;;;;;;;5.03;3.03;;;;;;;;;;10560642;28;20031;-70
2022/07/18 02:56:10;;;;;;;4.57;3.05;;;;;;;;;;10553844;28;20055;-71
2022/07/18 03:01:14;;;;;;;3.53;2.42;;;;;;;;;;10559516;28;20036;-72
2022/07/18 03:06:17;;;;;;;8.50;3.13;;;;;;;;;;10560281;28;20027;-71
2022/07/18 03:11:20;;;;;;;5.23;2.97;;;;;;;;;;10558497;28;20066;-72
2022/07/18 03:16:24;;;;;;;4.68;3.42;;;;;;;;;;10562281;27;20024;-70
2022/07/18 03:21:28;;;;;;;4.45;3.10;;;;;;;;;;10570978;27;20449;-71
2022/07/18 03:26:30;;;;;;;4.85;3.10;;;;;;;;;;10563054;27;20120;-72
2022/07/18 03:31:35;;;;;;;5.63;3.28;;;;;;;;;;10564152;27;20412;-71
2022/07/18 03:36:38;;;;;;;6.57;3.40;;;;;;;;;;10559894;28;20480;-72
2022/07/18 03:41:40;;;;;;;5.50;3.47;;;;;;;;;;10561097;28;20495;-72
2022/07/18 03:46:44;;;;;;;6.77;3.60;;;;;;;;;;10563978;28;20035;-70
2022/07/18 03:51:48;;;;;;;7.00;3.60;;;;;;;;;;10562457;27;20040;-71
2022/07/18 03:56:51;;;;;;;5.05;3.70;;;;;;;;;;10558107;28;20028;-71
2022/07/18 04:01:55;;;;;;;6.77;4.00;;;;;;;;;;10561957;28;20112;-73
2022/07/18 04:06:59;;;;;;;6.55;3.55;;;;;;;;;;10549701;28;20119;-70
2022/07/18 04:12:02;;;;;;;5.85;3.67;;;;;;;;;;10555507;28;20031;-71
2022/07/18 04:17:07;;;;;;;6.85;3.80;;;;;;;;;;10560423;28;20123;-72
2022/07/18 04:22:10;;;;;;;7.07;3.78;;;;;;;;;;10553739;28;20035;-70
2022/07/18 04:27:13;;;;;;;8.82;4.13;;;;;;;;;;10559284;27;20036;-70
2022/07/18 04:32:18;;;;;;;6.40;3.50;;;;;;;;;;10556837;28;20047;-70
2022/07/18 04:37:20;;;;;;;7.32;3.65;;;;;;;;;;10553198;28;20433;-72
2022/07/18 04:42:23;;;;;;;7.70;3.60;;;;;;;;;;10560425;28;20035;-70
2022/07/18 04:47:28;;;;;;;9.88;3.80;;;;;;;;;;10555167;27;20032;-72
2022/07/18 04:52:36;;;;;;;7.50;3.78;;;;;;;;;;10563437;28;20135;-72
2022/07/18 04:57:39;;;;;;;6.97;3.72;;;;;;;;;;10552148;28;20063;-71
2022/07/18 05:02:42;;;;;;;;;;;;;;;;;;10559575;28;20040;-71
2022/07/18 05:07:47;;;;;;;7.57;4.20;;;;;;;;;;10555872;28;19920;-70
2022/07/18 05:12:51;;;;;;;10.48;4.70;;;;;;;;;;10552514;28;20047;-71
2022/07/18 05:17:55;;;;;;;7.30;4.43;;;;;;;;;;10558667;28;20126;-72
2022/07/18 05:23:00;;;;;;;8.30;4.68;;;;;;;;;;10551804;28;20572;-73
2022/07/18 05:28:03;;;;;;;9.25;4.80;;;;;;;;;;10555778;28;20040;-71
2022/07/18 05:33:05;;;;;;;6.97;4.20;;;;;;;;;;10560722;27;20113;-70
2022/07/18 05:38:09;;;;;;;8.27;4.23;;;;;;;;;;10555576;28;20126;-70
2022/07/18 05:43:12;;;;;;;8.05;3.95;;;;;;;;;;10555075;28;20038;-72
2022/07/18 05:48:15;;;;;;;7.40;3.70;;;;;;;;;;10559669;27;20093;-72
2022/07/18 05:53:19;;;;;;;7.97;4.77;;;;;;;;;;10560051;28;20467;-72
2022/07/18 05:58:22;;;;;;;8.38;4.22;;;;;;;;;;10552893;28;20796;-72
2022/07/18 06:03:25;;;;;;;11.20;4.15;;;;;;;;;;10557002;28;20073;-72
2022/07/18 06:08:29;;;;;;;8.02;3.97;;;;;;;;;;10552267;27;20424;-71
2022/07/18 06:13:32;;;;;;;6.60;3.42;;;;;;;;;;10558617;27;20051;-72
2022/07/18 06:18:34;;;;;;;7.53;3.80;;;;;;;;;;10562115;28;20491;-72
2022/07/18 06:23:38;;;;;;;6.83;3.37;;;;;;;;;;10558895;28;20487;-71
2022/07/18 06:28:41;;;;;;;6.60;3.55;;;;;;;;;;10560009;27;20300;-71
2022/07/18 06:33:49;;;;;;;8.98;3.80;;;;;;;;;;10558207;28;20698;-71
2022/07/18 06:38:53;;;;;;;6.72;3.03;;;;;;;;;;10561480;27;20466;-71
2022/07/18 06:43:57;;;;;;;6.53;3.17;;;;;;;;;;10555215;27;20035;-71
2022/07/18 06:49:00;;;;;;;;;;;;;;;;;;10555807;27;20038;-70
2022/07/18 06:54:04;;;;;;;9.55;3.10;;;;;;;;;;10559113;28;19919;-72
2022/07/18 06:59:07;;;;;;;5.45;3.10;;;;;;;;;;10554027;28;20070;-72
2022/07/18 07:04:10;;;;;;;4.45;2.33;;;;;;;;;;10560493;28;20040;-72
2022/07/18 07:09:15;;;;;;;8.55;2.97;;;;;;;;;;10558920;27;20042;-72
2022/07/18 07:14:17;;;;;;;5.38;2.88;;;;;;;;;;10551826;28;20135;-71
2022/07/18 07:19:20;;;;;;;6.68;2.60;;;;;;;;;;10563002;27;20044;-72
2022/07/18 07:24:24;;;;;;;6.75;3.13;;;;;;;;;;10555643;28;20880;-72
2022/07/18 07:29:27;;;;;;;5.05;2.65;;;;;;;;;;10562095;27;20047;-72
2022/07/18 07:34:30;;;;;;;6.80;2.70;;;;;;;;;;10556300;28;20471;-72
2022/07/18 07:39:34;;;;;;;4.90;2.63;;;;;;;;;;10558508;27;20048;-72
2022/07/18 07:44:37;;;;;;;4.55;2.80;;;;;;;;;;10561529;28;20036;-72
2022/07/18 07:49:39;;;;;;;8.10;2.70;;;;;;;;;;10555312;28;20121;-72
2022/07/18 07:54:45;;;;;;;3.83;2.38;;;;;;;;;;10560192;28;20130;-72
2022/07/18 07:59:48;;;;;;;6.10;2.63;;;;;;;;;;10558172;28;20114;-71
2022/07/18 08:04:51;;;;;;;11.38;4.47;;;;;;;;;;10544400;28;20142;-73
2022/07/18 08:09:55;;;;;;;4.80;2.90;;;;;;;;;;10555114;28;20046;-71
2022/07/18 08:14:57;;;;;;;2.50;2.13;;;;;;;;;;10551221;28;20077;-70
2022/07/18 08:20:00;;;;;;;4.07;2.30;;;;;;;;;;10551884;28;20116;-71
2022/07/18 08:25:04;;;;;;;4.53;2.38;;;;;;;;;;10557809;27;20032;-71
2022/07/18 08:30:08;;;;;;;3.13;2.58;;;;;;;;;;10554779;28;20044;-72
2022/07/18 08:35:11;;;;;;;2.92;2.30;;;;;;;;;;10556818;28;20031;-73
2022/07/18 08:40:16;;;;;;;2.03;1.92;;;;;;;;;;10553968;27;20192;-72
2022/07/18 08:45:20;;;;;;;3.88;2.10;;;;;;;;;;10555107;28;20047;-71
2022/07/18 08:50:23;;;;;;;5.32;2.70;;;;;;;;;;10558883;28;20031;-72
2022/07/18 08:55:27;;;;;;;11.40;7.38;;;;;;;;;;10552602;28;20126;-72
2022/07/18 09:00:30;;;;;;;2.58;2.30;;;;;;;;;;10560300;28;20043;-73
2022/07/18 09:05:41;;;;;;;6.10;2.30;;;;;;;;;;10563510;27;20035;-73
2022/07/18 09:10:50;;;;;;;3.47;2.30;;;;;;;;;;10563233;27;20046;-71
2022/07/18 09:16:00;;;;;;;4.53;2.33;;;;;;;;;;10557129;28;20084;-71
2022/07/18 09:21:04;;;;;;;4.43;2.65;;;;;;;;;;10558311;27;20669;-73
2022/07/18 09:26:09;;;;;;;2.60;2.40;;;;;;;;;;10541953;27;20040;-71
2022/07/18 09:31:17;;;;;;;2.72;2.28;;;;;;;;;;10560502;28;20047;-72
2022/07/18 09:36:20;;;;;;;10.98;2.65;;;;;;;;;;10558954;28;20031;-72
2022/07/18 09:41:25;;;;;;;5.50;2.58;;;;;;;;;;10560455;28;20044;-73
2022/07/18 09:46:28;;;;;;;4.43;2.42;;;;;;;;;;10565161;27;20064;-71
2022/07/18 09:51:30;;;;;;;2.70;2.50;;;;;;;;;;10566817;27;20043;-71
2022/07/18 09:56:39;;;;;;;6.72;2.90;;;;;;;;;;10562132;28;20043;-72
2022/07/18 10:01:42;;;;;;;6.65;3.40;;;;;;;;;;10561483;28;20043;-72
2022/07/18 10:06:46;;;;;;;3.45;2.80;;;;;;;;;;10567999;27;20036;-72
2022/07/18 10:11:50;;;;;;;6.20;3.50;;;;;;;;;;10559176;27;20145;-72
2022/07/18 10:16:56;;;;;;;7.97;3.05;;;;;;;;;;10561783;27;20500;-71
2022/07/18 10:22:02;;;;;;;3.10;2.80;;;;;;;;;;10558227;27;20084;-72
2022/07/18 10:27:14;;;;;;;2.90;2.67;;;;;;;;;;10562846;27;20027;-71
2022/07/18 10:32:32;;;;;;;6.35;2.88;;;;;;;;;;10559714;27;20040;-71
2022/07/18 10:37:35;;;;;;;7.35;2.80;;;;;;;;;;10566210;27;20044;-72
2022/07/18 10:42:39;;;;;;;3.95;2.65;;;;;;;;;;10566210;28;20128;-71
2022/07/18 10:47:41;;;;;;;3.65;2.90;;;;;;;;;;10564733;27;20047;-72
2022/07/18 10:53:00;;;;;;;2.75;2.22;;;;;;;;;;10560741;28;20513;-72
2022/07/18 10:58:17;;;;;;;3.25;2.33;;;;;;;;;;10554059;27;20610;-73
2022/07/18 11:03:27;;;;;;;2.60;2.30;;;;;;;;;;10552940;27;20468;-73
2022/07/18 11:08:31;;;;;;;4.68;2.60;;;;;;;;;;10562569;27;20039;-72
2022/07/18 11:13:36;;;;;;;6.18;3.17;;;;;;;;;;10562488;27;20039;-71
2022/07/18 11:18:57;;;;;;;3.30;2.60;;;;;;;;;;10563820;27;20040;-71
2022/07/18 11:24:02;;;;;;;2.65;2.40;;;;;;;;;;10553245;27;20054;-72
2022/07/18 11:29:07;;;;;;;4.85;2.63;;;;;;;;;;10559400;28;20032;-72
2022/07/18 11:34:17;;;;;;;5.05;2.60;;;;;;;;;;10564932;27;20139;-72
2022/07/18 11:39:29;;;;;;;2.95;2.17;;;;;;;;;;10557769;27;20036;-71
2022/07/18 11:44:33;;;;;;;5.25;2.40;;;;;;;;;;10551997;28;20030;-71
2022/07/18 11:49:36;;;;;;;2.72;2.40;;;;;;;;;;10558783;28;20055;-71
2022/07/18 11:54:39;;;;;;;6.38;2.17;;;;;;;;;;10546000;28;20149;-71
2022/07/18 11:59:44;;;;;;;2.15;1.98;;;;;;;;;;10561464;27;20035;-71
2022/07/18 12:04:47;;;;;;;2.70;2.05;;;;;;;;;;10557940;27;20552;-72
2022/07/18 12:09:51;;;;;;;5.30;2.03;;;;;;;;;;10555074;28;20032;-71
2022/07/18 12:14:59;;;;;;;3.97;2.08;;;;;;;;;;10552044;28;20050;-71
2022/07/18 12:20:12;;;;;;;3.50;2.15;;;;;;;;;;10562624;27;20051;-72
2022/07/18 12:25:17;;;;;;;6.53;2.05;;;;;;;;;;10556006;28;20040;-72
2022/07/18 12:30:21;;;;;;;2.67;2.00;;;;;;;;;;10554159;28;20078;-72
2022/07/18 12:35:25;;;;;;;6.10;2.17;;;;;;;;;;10558632;28;20042;-72
2022/07/18 12:40:39;;;;;;;2.22;1.70;;;;;;;;;;10556621;28;20046;-70
2022/07/18 12:45:44;;;;;;;4.63;2.10;;;;;;;;;;10555214;28;20046;-71
2022/07/18 12:50:47;;;;;;;4.05;1.90;;;;;;;;;;10554974;28;20055;-71
2022/07/18 12:55:50;;;;;;;2.38;2.10;;;;;;;;;;10551428;28;20035;-72
2022/07/18 13:00:55;;;;;;;3.42;1.88;;;;;;;;;;10559912;28;20581;-71
2022/07/18 13:06:06;;;;;;;6.22;1.70;;;;;;;;;;10555262;28;20027;-70
2022/07/18 13:11:09;;;;;;;5.63;1.88;;;;;;;;;;10557582;28;20522;-71
2022/07/18 13:16:13;;;;;;;3.83;1.90;;;;;;;;;;10557700;28;20048;-72
2022/07/18 13:21:18;;;;;;;1.55;1.30;;;;;;;;;;10552559;28;20035;-72
2022/07/18 13:26:21;;;;;;;2.28;1.83;;;;;;;;;;10557371;28;20036;-72
2022/07/18 13:31:25;;;;;;;1.98;1.55;;;;;;;;;;10557383;28;20039;-71
2022/07/18 13:36:29;;;;;;;7.38;2.28;;;;;;;;;;10556474;28;20036;-73
2022/07/18 13:41:32;;;;;;;4.13;2.30;;;;;;;;;;10569675;27;21169;-71
2022/07/18 13:46:36;;;;;;;5.28;2.03;;;;;;;;;;10555500;28;20077;-71
2022/07/18 13:51:39;;;;;;;3.97;1.67;;;;;;;;;;10562585;28;20109;-72
2022/07/18 13:56:42;;;;;;;2.08;1.52;;;;;;;;;;10567212;28;20040;-71
2022/07/18 14:01:47;;;;;;;4.38;1.80;;;;;;;;;;10563968;27;20748;-71
2022/07/18 14:06:51;;;;;;;1.60;1.50;;;;;;;;;;10564418;27;20031;-72
2022/07/18 14:11:53;;;;;;;3.70;1.75;;;;;;;;;;10551158;27;20427;-71
2022/07/18 14:16:57;;;;;;;1.90;1.60;;;;;;;;;;10557837;27;20067;-71
2022/07/18 14:22:00;;;;;;;11.43;5.70;;;;;;;;;;10560804;28;20471;-71
2022/07/18 14:27:03;;;;;;;6.38;2.30;;;;;;;;;;10555358;27;20043;-72
2022/07/18 14:32:07;;;;;;;2.75;1.40;;;;;;;;;;10562667;28;20067;-71
2022/07/18 14:37:10;;;;;;;2.40;1.83;;;;;;;;;;10559449;27;20122;-71
2022/07/18 14:42:13;;;;;;;6.28;1.98;;;;;;;;;;10567365;27;20036;-72
2022/07/18 14:47:18;;;;;;;10.20;2.38;;;;;;;;;;10559482;28;20032;-72
2022/07/18 14:52:20;;;;;;;2.80;1.60;;;;;;;;;;10562485;28;20067;-72
2022/07/18 14:57:23;;;;;;;3.92;1.60;;;;;;;;;;10563145;27;20118;-71
2022/07/18 15:02:27;;;;;;;11.73;5.15;;;;;;;;;;10564077;28;20139;-72
2022/07/18 15:07:30;;;;;;;11.95;2.97;;;;;;;;;;10555703;28;20062;-71
2022/07/18 15:12:33;;;;;;;1.92;1.48;;;;;;;;;;10559821;28;20071;-71
2022/07/18 15:17:37;;;;;;;2.22;1.60;;;;;;;;;;10561676;27;20131;-72
2022/07/18 15:22:40;;;;;;;9.35;2.13;;;;;;;;;;10559235;27;20364;-71
2022/07/18 15:27:42;;;;;;;4.45;1.70;;;;;;;;;;10568647;27;20043;-71
2022/07/18 15:32:46;;;;;;;2.97;1.60;;;;;;;;;;10570467;27;20475;-71
2022/07/18 15:37:49;;;;;;;2.25;1.65;;;;;;;;;;10562394;27;20059;-72
2022/07/18 15:42:58;;;;;;;3.95;1.90;;;;;;;;;;10556667;28;20035;-71
2022/07/18 15:48:02;;;;;;;1.67;1.50;;;;;;;;;;10559161;27;20257;-71
2022/07/18 15:53:06;;;;;;;7.03;3.25;;;;;;;;;;10575400;27;20067;-71
2022/07/18 15:58:10;;;;;;;5.53;2.17;;;;;;;;;;10560369;27;20043;-71
2022/07/18 16:03:14;;;;;;;2.83;1.95;;;;;;;;;;10562151;27;20046;-71
2022/07/18 16:08:17;;;;;;;3.28;1.90;;;;;;;;;;10557018;28;20499;-71
2022/07/18 16:13:20;;;;;;;3.33;1.83;;;;;;;;;;10560544;28;20495;-70
2022/07/18 16:18:25;;;;;;;3.00;2.00;;;;;;;;;;10561383;27;20122;-71
2022/07/18 16:23:28;;;;;;;3.05;1.77;;;;;;;;;;10548539;27;20127;-68
2022/07/18 16:28:30;;;;;;;2.10;1.42;;;;;;;;;;10560916;27;20119;-72
2022/07/18 16:33:34;;;;;;;3.20;2.10;;;;;;;;;;10556179;28;20608;-70
2022/07/18 16:38:37;;;;;;;2.90;1.73;;;;;;;;;;10560955;27;20104;-71
2022/07/18 16:43:40;;;;;;;5.85;1.77;;;;;;;;;;10555248;28;20067;-71
2022/07/18 16:48:44;;;;;;;3.75;1.80;;;;;;;;;;10553453;28;20055;-72
2022/07/18 16:53:47;;;;;;;2.40;1.77;;;;;;;;;;10555889;28;20505;-73
2022/07/18 16:58:57;;;;;;;5.00;2.50;;;;;;;;;;10559272;28;20084;-70
2022/07/18 17:04:01;;;;;;;3.20;1.60;;;;;;;;;;10556672;28;20085;-72
2022/07/18 17:09:04;;;;;;;2.35;1.45;;;;;;;;;;10556302;28;20034;-72
2022/07/18 17:14:08;;;;;;;2.78;1.55;;;;;;;;;;10542483;28;20119;-72
2022/07/18 17:19:12;;;;;;;4.32;1.77;;;;;;;;;;10557420;28;20120;-71
2022/07/18 17:24:16;;;;;;;3.65;2.13;;;;;;;;;;10554212;28;20031;-71
2022/07/18 17:29:19;;;;;;;5.38;1.67;;;;;;;;;;10564854;27;20174;-71
2022/07/18 17:34:24;;;;;;;2.72;1.60;;;;;;;;;;10566541;27;20028;-71
2022/07/18 17:39:26;;;;;;;3.65;1.80;;;;;;;;;;10565812;27;20075;-72
2022/07/18 17:44:30;;;;;;;4.20;1.65;;;;;;;;;;10561907;28;20044;-69
2022/07/18 17:49:34;;;;;;;4.38;1.60;;;;;;;;;;10566607;27;20031;-69
2022/07/18 17:54:37;;;;;;;5.85;1.58;;;;;;;;;;10560160;28;20046;-72
2022/07/18 17:59:41;;;;;;;3.78;1.58;;;;;;;;;;10567212;27;20446;-72
2022/07/18 18:04:46;;;;;;;3.70;1.48;;;;;;;;;;10561835;28;20047;-71
2022/07/18 18:09:48;;;;;;;3.92;1.67;;;;;;;;;;10565542;28;20613;-71
2022/07/18 18:14:52;;;;;;;7.32;2.83;;;;;;;;;;10566403;27;20043;-72
2022/07/18 18:19:56;;;;;;;5.70;1.85;;;;;;;;;;10565744;27;20028;-70
2022/07/18 18:24:59;;;;;;;2.38;1.70;;;;;;;;;;10559993;27;20070;-74
2022/07/18 18:30:02;;;;;;;2.70;1.40;;;;;;;;;;10565008;28;20050;-72
2022/07/18 18:35:07;;;;;;;2.45;1.58;;;;;;;;;;10557239;27;20079;-71
2022/07/18 18:40:11;;;;;;;5.20;2.20;;;;;;;;;;10558317;28;20044;-72
2022/07/18 18:45:14;;;;;;;3.13;2.20;;;;;;;;;;10561958;28;20047;-71
2022/07/18 18:50:18;;;;;;;6.95;2.72;;;;;;;;;;10559658;28;20121;-72
2022/07/18 18:55:20;;;;;;;4.45;2.53;;;;;;;;;;10560791;28;20456;-72
2022/07/18 19:00:23;;;;;;;;;;;;;;;;;;10564207;27;20039;-72
2022/07/18 19:05:27;;;;;;;4.35;1.95;;;;;;;;;;10558502;27;19930;-72
2022/07/18 19:10:30;;;;;;;4.45;2.00;;;;;;;;;;10564665;27;20457;-73
2022/07/18 19:15:33;;;;;;;;;;;;;;;;;;10558008;28;20036;-72
2022/07/18 19:20:37;;;;;;;3.17;1.93;;;;;;;;;;10557910;27;20388;-72
2022/07/18 19:25:40;;;;;;;4.32;2.10;;;;;;;;;;10558403;28;20043;-75
2022/07/18 19:30:44;;;;;;;;;;;;;;;;;;10557175;28;20055;-73
2022/07/18 19:35:48;;;;;;;7.18;3.33;;;;;;;;;;10555993;27;19973;-71
2022/07/18 19:40:51;;;;;;;5.82;2.50;;;;;;;;;;10550933;27;20123;-72
2022/07/18 19:45:54;;;;;;;3.97;2.25;;;;;;;;;;10553532;28;20116;-71
2022/07/18 19:50:56;;;;;;;;;;;;;;;;;;10558535;27;20032;-71
2022/07/18 19:56:00;;;;;;;4.77;2.00;;;;;;;;;;10553580;27;19976;-71
2022/07/18 20:01:03;;;;;;;2.95;1.63;;;;;;;;;;10553917;28;20123;-71
2022/07/18 20:06:07;;;;;;;3.38;2.10;;;;;;;;;;10554739;27;20052;-71
2022/07/18 20:11:13;;;;;;;4.47;2.30;;;;;;;;;;10555868;27;20035;-71
2022/07/18 20:16:16;;;;;;;5.63;2.22;;;;;;;;;;10550571;27;20078;-72
2022/07/18 20:21:19;;;;;;;3.63;2.40;;;;;;;;;;10550472;27;20062;-71
2022/07/18 20:26:23;;;;;;;4.20;2.15;;;;;;;;;;10553165;28;20032;-72
2022/07/18 20:31:26;;;;;;;4.30;2.13;;;;;;;;;;10549272;28;20056;-71
2022/07/18 20:36:29;;;;;;;9.73;3.25;;;;;;;;;;10553366;27;20036;-72
2022/07/18 20:41:33;;;;;;;4.78;1.65;;;;;;;;;;10544405;27;20036;-70
2022/07/18 20:46:36;;;;;;;5.45;1.80;;;;;;;;;;10554811;27;20118;-72
2022/07/18 20:51:40;;;;;;;5.55;1.85;;;;;;;;;;10542938;27;20036;-72
2022/07/18 20:56:46;;;;;;;2.90;1.90;;;;;;;;;;10544140;28;20471;-73
2022/07/18 21:01:48;;;;;;;4.88;2.03;;;;;;;;;;10545755;28;20059;-71
2022/07/18 21:06:51;;;;;;;2.47;1.70;;;;;;;;;;10549200;28;20062;-72
2022/07/18 21:11:57;;;;;;;2.67;1.58;;;;;;;;;;10549279;28;20031;-72
2022/07/18 21:17:00;;;;;;;3.50;2.10;;;;;;;;;;10544861;28;20584;-71
2022/07/18 21:22:03;;;;;;;;;;;;;;;;;;10545886;28;20036;-70
2022/07/18 21:27:12;;;;;;;4.10;2.20;;;;;;;;;;10545789;28;19921;-72
2022/07/18 21:32:16;;;;;;;2.42;2.00;;;;;;;;;;10551368;28;20097;-72
2022/07/18 21:37:19;;;;;;;3.08;2.00;;;;;;;;;;10553451;28;20050;-71
2022/07/18 21:42:23;;;;;;;3.85;2.35;;;;;;;;;;10556848;28;20039;-71
2022/07/18 21:47:27;;;;;;;2.38;1.90;;;;;;;;;;10554603;28;20560;-72
2022/07/18 21:52:30;;;;;;;5.13;2.17;;;;;;;;;;10552911;28;20024;-72
2022/07/18 21:57:35;;;;;;;4.03;1.83;;;;;;;;;;10559378;28;20063;-70
2022/07/18 22:02:38;;;;;;;4.45;2.25;;;;;;;;;;10555654;28;20524;-71
2022/07/18 22:07:41;;;;;;;2.60;1.80;;;;;;;;;;10559304;28;20043;-72
2022/07/18 22:12:48;;;;;;;4.10;2.20;;;;;;;;;;10553163;28;20384;-71
2022/07/18 22:17:51;;;;;;;4.28;2.20;;;;;;;;;;10589389;27;20564;-71
2022/07/18 22:22:54;;;;;;;3.60;2.42;;;;;;;;;;10569333;27;20395;-73
2022/07/18 22:27:58;;;;;;;3.25;2.20;;;;;;;;;;10559046;27;20039;-71
2022/07/18 22:33:02;;;;;;;3.92;2.45;;;;;;;;;;10565949;28;20112;-72
2022/07/18 22:38:05;;;;;;;6.05;2.55;;;;;;;;;;10565155;28;20063;-71
2022/07/18 22:43:09;;;;;;;3.85;2.47;;;;;;;;;;10559862;28;20522;-71
2022/07/18 22:48:11;;;;;;;5.95;2.25;;;;;;;;;;10568607;27;20039;-72
2022/07/18 22:53:14;;;;;;;4.80;2.60;;;;;;;;;;10566040;28;20085;-71
2022/07/18 22:58:18;;;;;;;4.78;2.60;;;;;;;;;;10565869;28;20064;-72
2022/07/18 23:03:21;;;;;;;5.95;2.53;;;;;;;;;;10566527;28;20503;-71
2022/07/18 23:08:24;;;;;;;;;;;;;;;;;;10565771;28;20047;-72
2022/07/18 23:13:28;;;;;;;6.20;2.30;;;;;;;;;;10564324;27;19953;-72
2022/07/18 23:18:32;;;;;;;6.85;2.45;;;;;;;;;;10560238;27;20126;-72
2022/07/18 23:23:35;;;;;;;2.83;1.88;;;;;;;;;;10557883;27;20063;-70
2022/07/18 23:28:39;;;;;;;5.50;2.50;;;;;;;;;;10558751;28;20689;-71
2022/07/18 23:33:41;;;;;;;3.92;2.20;;;;;;;;;;10566998;27;20035;-72
2022/07/18 23:38:44;;;;;;;3.72;2.40;;;;;;;;;;10562982;28;20043;-71
2022/07/18 23:43:48;;;;;;;4.13;2.35;;;;;;;;;;10554421;28;20035;-72
2022/07/18 23:48:51;;;;;;;4.93;2.53;;;;;;;;;;10560011;28;20507;-72
2022/07/18 23:53:53;;;;;;;4.82;2.55;;;;;;;;;;10557297;27;20081;-72
2022/07/18 23:58:58;;;;;;;5.65;3.17;;;;;;;;;;10563550;27;20067;-71
